createdAt,value
2018-08-16T00:00:18.205Z,5.97
2018-08-16T00:02:47.232Z,7.05
2018-08-16T00:05:15.745Z,6.92
2018-08-16T00:07:44.169Z,5.70
2018-08-16T00:10:14.372Z,6.62
2018-08-16T00:12:44.319Z,6.35
2018-08-16T00:15:12.981Z,6.00
2018-08-16T00:17:41.637Z,6.00
2018-08-16T00:20:10.139Z,4.90
2018-08-16T00:22:38.539Z,5.87
2018-08-16T00:25:07.729Z,5.80
2018-08-16T00:27:36.200Z,6.33
2018-08-16T00:30:06.932Z,6.30
2018-08-16T00:32:35.479Z,7.08
2018-08-16T00:35:04.193Z,6.28
2018-08-16T00:37:32.607Z,5.85
2018-08-16T00:40:00.959Z,6.10
2018-08-16T00:42:31.683Z,5.72
2018-08-16T00:45:00.029Z,5.95
2018-08-16T00:47:28.466Z,6.08
2018-08-16T00:49:56.886Z,6.83
2018-08-16T00:52:25.309Z,6.65
2018-08-16T00:54:53.676Z,5.60
2018-08-16T00:57:22.100Z,6.25
2018-08-16T00:59:50.534Z,6.00
2018-08-16T01:02:18.931Z,5.97
2018-08-16T01:04:47.277Z,5.92
2018-08-16T01:07:15.643Z,6.17
2018-08-16T01:09:44.033Z,6.53
2018-08-16T01:12:12.387Z,5.53
2018-08-16T01:14:40.805Z,5.90
2018-08-16T01:17:09.499Z,6.15
2018-08-16T01:19:37.897Z,6.90
2018-08-16T01:22:06.619Z,6.53
2018-08-16T01:24:35.015Z,6.83
2018-08-16T01:27:03.424Z,6.03
2018-08-16T01:29:31.829Z,5.97
2018-08-16T01:32:00.176Z,7.37
2018-08-16T01:34:28.548Z,6.55
2018-08-16T01:36:56.931Z,6.37
2018-08-16T01:39:25.315Z,6.10
2018-08-16T01:41:53.635Z,6.33
2018-08-16T01:44:22.010Z,6.40
2018-08-16T01:46:50.388Z,6.90
2018-08-16T01:49:33.272Z,6.78
2018-08-16T01:52:01.740Z,7.03
2018-08-16T01:54:30.595Z,6.20
2018-08-16T01:56:59.739Z,6.37
2018-08-16T01:59:28.175Z,6.90
2018-08-16T02:01:56.597Z,7.67
2018-08-16T02:04:24.980Z,6.87
2018-08-16T02:06:53.760Z,7.10
2018-08-16T02:09:22.990Z,6.33
2018-08-16T02:11:51.828Z,6.78
2018-08-16T02:14:20.751Z,7.30
2018-08-16T02:16:49.607Z,5.67
2018-08-16T02:19:18.027Z,6.42
2018-08-16T02:21:46.407Z,6.10
2018-08-16T02:24:14.781Z,5.60
2018-08-16T02:26:43.144Z,6.97
2018-08-16T02:29:11.636Z,5.80
2018-08-16T02:31:39.994Z,6.97
2018-08-16T02:34:08.408Z,6.72
2018-08-16T02:36:36.828Z,6.47
2018-08-16T02:39:07.776Z,6.33
2018-08-16T02:41:36.439Z,6.30
2018-08-16T02:44:04.840Z,7.28
2018-08-16T02:46:33.215Z,5.42
2018-08-16T02:49:01.543Z,5.58
2018-08-16T02:51:29.916Z,5.80
2018-08-16T02:53:58.251Z,6.60
2018-08-16T02:56:26.652Z,5.80
2018-08-16T02:58:55.000Z,6.75
2018-08-16T03:01:23.478Z,6.75
2018-08-16T03:03:51.808Z,6.60
2018-08-16T03:06:20.180Z,6.22
2018-08-16T03:08:48.508Z,6.67
2018-08-16T03:11:16.880Z,6.78
2018-08-16T03:13:45.219Z,5.95
2018-08-16T03:16:13.632Z,6.70
2018-08-16T03:18:41.972Z,6.47
2018-08-16T03:21:10.349Z,6.47
2018-08-16T03:23:38.704Z,6.67
2018-08-16T03:26:07.111Z,6.58
2018-08-16T03:28:35.460Z,6.60
2018-08-16T03:31:03.844Z,6.95
2018-08-16T03:33:32.224Z,6.78
2018-08-16T03:36:00.604Z,6.58
2018-08-16T03:38:28.972Z,6.85
2018-08-16T03:40:57.331Z,6.60
2018-08-16T03:43:25.712Z,6.65
2018-08-16T03:45:54.064Z,6.58
2018-08-16T03:48:22.467Z,6.62
2018-08-16T03:50:50.815Z,6.53
2018-08-16T03:53:19.195Z,7.08
2018-08-16T03:55:47.544Z,6.90
2018-08-16T03:58:15.948Z,6.37
2018-08-16T04:00:44.288Z,7.33
2018-08-16T04:03:12.669Z,6.70
2018-08-16T04:05:41.036Z,6.90
2018-08-16T04:08:09.800Z,7.22
2018-08-16T04:10:38.164Z,7.85
2018-08-16T04:13:06.543Z,7.08
2018-08-16T04:15:34.944Z,7.87
2018-08-16T04:18:03.332Z,7.17
2018-08-16T04:20:31.661Z,7.22
2018-08-16T04:23:00.032Z,7.55
2018-08-16T04:25:28.370Z,7.50
2018-08-16T04:27:56.749Z,7.90
2018-08-16T04:30:25.116Z,7.55
2018-08-16T04:32:53.492Z,7.30
2018-08-16T04:35:21.923Z,7.70
2018-08-16T04:37:50.272Z,7.22
2018-08-16T04:40:18.647Z,7.40
2018-08-16T04:42:47.016Z,7.50
2018-08-16T04:45:15.363Z,6.92
2018-08-16T04:47:43.766Z,6.70
2018-08-16T04:50:12.947Z,8.28
2018-08-16T04:52:41.371Z,7.60
2018-08-16T04:55:10.539Z,8.48
2018-08-16T04:57:39.347Z,7.67
2018-08-16T05:00:11.133Z,8.38
2018-08-16T05:02:39.703Z,8.10
2018-08-16T05:05:08.569Z,8.30
2018-08-16T05:07:37.077Z,7.10
2018-08-16T05:10:06.760Z,8.48
2018-08-16T05:12:35.137Z,7.50
2018-08-16T05:15:03.530Z,8.73
2018-08-16T05:17:31.907Z,7.47
2018-08-16T05:20:00.268Z,6.97
2018-08-16T05:22:28.636Z,8.55
2018-08-16T05:24:56.986Z,9.10
2018-08-16T05:27:25.388Z,7.80
2018-08-16T05:29:53.732Z,7.85
2018-08-16T05:32:22.116Z,6.78
2018-08-16T05:34:50.580Z,8.00
2018-08-16T05:37:18.955Z,7.35
2018-08-16T05:39:47.324Z,7.72
2018-08-16T05:42:15.738Z,8.10
2018-08-16T05:44:44.072Z,7.40
2018-08-16T05:47:12.444Z,7.80
2018-08-16T05:49:40.824Z,7.95
2018-08-16T05:52:09.179Z,7.97
2018-08-16T05:54:37.561Z,9.25
2018-08-16T05:57:05.925Z,8.15
2018-08-16T05:59:34.308Z,7.60
2018-08-16T06:02:02.687Z,9.20
2018-08-16T06:04:31.080Z,7.50
2018-08-16T06:06:59.433Z,7.60
2018-08-16T06:09:27.937Z,8.18
2018-08-16T06:11:56.276Z,7.35
2018-08-16T06:14:24.657Z,7.80
2018-08-16T06:16:53.020Z,8.45
2018-08-16T06:19:21.416Z,6.37
2018-08-16T06:21:49.787Z,7.45
2018-08-16T06:24:18.192Z,6.58
2018-08-16T06:26:46.535Z,6.80
2018-08-16T06:29:14.904Z,7.40
2018-08-16T06:31:43.372Z,6.85
2018-08-16T06:34:11.695Z,7.10
2018-08-16T06:36:40.065Z,5.85
2018-08-16T06:39:10.512Z,7.58
2018-08-16T06:41:39.477Z,6.28
2018-08-16T06:44:07.911Z,6.28
2018-08-16T06:46:36.312Z,6.17
2018-08-16T06:49:04.736Z,6.72
2018-08-16T06:51:33.160Z,5.22
2018-08-16T06:54:01.540Z,5.72
2018-08-16T06:56:29.912Z,5.25
2018-08-16T06:58:58.295Z,5.85
2018-08-16T07:01:26.779Z,4.70
2018-08-16T07:03:55.157Z,3.98
2018-08-16T07:06:23.524Z,4.90
2018-08-16T07:08:52.017Z,4.62
2018-08-16T07:11:20.355Z,4.28
2018-08-16T07:13:48.792Z,5.05
2018-08-16T07:16:17.144Z,4.55
2018-08-16T07:18:45.581Z,4.33
2018-08-16T07:21:14.013Z,4.08
2018-08-16T07:23:42.576Z,4.55
2018-08-16T07:26:10.932Z,4.03
2018-08-16T07:28:39.312Z,4.58
2018-08-16T07:31:07.672Z,4.55
2018-08-16T07:33:36.026Z,3.42
2018-08-16T07:36:04.455Z,4.22
2018-08-16T07:38:32.787Z,4.28
2018-08-16T07:41:01.187Z,4.05
2018-08-16T07:43:29.521Z,3.65
2018-08-16T07:45:57.960Z,3.87
2018-08-16T07:48:26.451Z,4.15
2018-08-16T07:50:54.857Z,4.40
2018-08-16T07:53:23.206Z,3.77
2018-08-16T07:55:51.580Z,4.00
2018-08-16T07:58:20.004Z,4.73
2018-08-16T08:00:48.375Z,3.60
2018-08-16T08:03:16.725Z,3.90
2018-08-16T08:05:45.114Z,4.60
2018-08-16T08:08:13.500Z,4.13
2018-08-16T08:10:41.897Z,3.97
2018-08-16T08:13:10.267Z,3.70
2018-08-16T08:15:38.664Z,3.50
2018-08-16T08:18:07.144Z,3.90
2018-08-16T08:20:35.532Z,3.80
2018-08-16T08:23:03.887Z,3.53
2018-08-16T08:25:32.335Z,3.50
2018-08-16T08:28:00.655Z,3.73
2018-08-16T08:30:29.044Z,3.50
2018-08-16T08:32:57.415Z,3.93
2018-08-16T08:35:25.819Z,3.90
2018-08-16T08:38:03.392Z,3.90
2018-08-16T08:40:31.820Z,3.83
2018-08-16T08:43:00.159Z,4.00
2018-08-16T08:45:28.527Z,3.10
2018-08-16T08:47:57.908Z,4.13
2018-08-16T08:50:26.865Z,3.83
2018-08-16T08:53:05.116Z,3.57
2018-08-16T08:55:44.952Z,3.50
2018-08-16T08:58:24.504Z,3.00
2018-08-16T09:00:52.888Z,3.60
2018-08-16T09:03:21.466Z,3.80
2018-08-16T09:05:49.854Z,3.80
2018-08-16T09:08:18.236Z,4.03
2018-08-16T09:11:13.536Z,3.00
2018-08-16T09:13:54.519Z,3.30
2018-08-16T09:16:24.863Z,3.57
2018-08-16T09:18:53.228Z,3.60
2018-08-16T09:21:21.648Z,3.50
2018-08-16T09:23:50.148Z,3.53
2018-08-16T09:26:23.820Z,3.20
2018-08-16T09:28:52.155Z,3.67
2018-08-16T09:31:31.860Z,3.13
2018-08-16T09:34:11.464Z,3.23
2018-08-16T09:36:39.842Z,3.20
2018-08-16T09:39:09.132Z,3.63
2018-08-16T09:41:37.939Z,3.80
2018-08-16T09:44:06.616Z,2.70
2018-08-16T09:47:15.298Z,2.90
2018-08-16T09:49:46.796Z,3.03
2018-08-16T09:52:15.747Z,3.10
2018-08-16T09:54:44.106Z,3.37
2018-08-16T09:57:13.500Z,3.10
2018-08-16T09:59:41.907Z,3.20
2018-08-16T10:02:12.773Z,2.87
2018-08-16T10:04:41.118Z,2.73
2018-08-16T10:07:09.527Z,2.70
2018-08-16T10:09:37.885Z,3.10
2018-08-16T10:12:06.285Z,2.73
2018-08-16T10:14:34.615Z,2.77
2018-08-16T10:17:02.980Z,3.70
2018-08-16T10:19:31.337Z,3.00
2018-08-16T10:21:59.752Z,2.50
2018-08-16T10:24:28.119Z,2.70
2018-08-16T10:26:56.541Z,2.53
2018-08-16T10:29:24.843Z,3.13
2018-08-16T10:31:53.205Z,3.00
2018-08-16T10:34:21.560Z,3.00
2018-08-16T10:36:49.945Z,2.90
2018-08-16T10:39:18.860Z,2.70
2018-08-16T10:41:47.345Z,2.80
2018-08-16T10:44:15.733Z,2.70
2018-08-16T10:46:44.268Z,3.30
2018-08-16T10:49:12.624Z,2.90
2018-08-16T10:51:41.040Z,2.90
2018-08-16T10:54:09.423Z,2.40
2018-08-16T10:56:37.761Z,3.10
2018-08-16T10:59:06.280Z,2.50
2018-08-16T11:01:34.626Z,2.73
2018-08-16T11:04:03.013Z,2.40
2018-08-16T11:06:31.354Z,2.47
2018-08-16T11:08:59.736Z,3.03
2018-08-16T11:11:28.092Z,2.87
2018-08-16T11:13:56.469Z,2.83
2018-08-16T11:16:24.812Z,2.57
2018-08-16T11:18:53.272Z,3.03
2018-08-16T11:21:21.611Z,2.63
2018-08-16T11:23:50.006Z,2.90
2018-08-16T11:26:18.364Z,2.70
2018-08-16T11:28:46.727Z,2.90
2018-08-16T11:31:15.112Z,2.50
2018-08-16T11:33:43.471Z,2.30
2018-08-16T11:36:11.819Z,2.80
2018-08-16T11:38:40.219Z,2.77
2018-08-16T11:41:08.616Z,2.47
2018-08-16T11:43:36.999Z,2.83
2018-08-16T11:46:05.367Z,3.00
2018-08-16T11:48:33.792Z,3.20
2018-08-16T11:51:02.275Z,3.23
2018-08-16T11:53:30.664Z,2.83
2018-08-16T11:55:59.004Z,2.60
2018-08-16T11:58:27.385Z,2.60
2018-08-16T12:00:55.855Z,3.00
2018-08-16T12:03:24.756Z,2.60
2018-08-16T12:05:53.092Z,2.80
2018-08-16T12:08:21.463Z,2.97
2018-08-16T12:10:49.801Z,2.50
2018-08-16T12:13:18.163Z,3.17
2018-08-16T12:15:46.489Z,3.30
2018-08-16T12:18:15.079Z,3.07
2018-08-16T12:20:43.413Z,2.90
2018-08-16T12:23:11.781Z,2.87
2018-08-16T12:25:40.124Z,3.60
2018-08-16T12:28:08.668Z,2.90
2018-08-16T12:30:36.993Z,2.93
2018-08-16T12:33:05.376Z,2.90
2018-08-16T12:35:33.709Z,2.97
2018-08-16T12:38:02.096Z,3.10
2018-08-16T12:40:30.475Z,3.40
2018-08-16T12:42:58.844Z,3.00
2018-08-16T12:45:29.032Z,3.10
2018-08-16T12:47:57.389Z,2.83
2018-08-16T12:50:25.789Z,3.00
2018-08-16T12:52:54.120Z,2.90
2018-08-16T12:55:22.517Z,3.30
2018-08-16T12:57:50.863Z,3.10
2018-08-16T13:00:19.239Z,2.80
2018-08-16T13:02:48.527Z,2.80
2018-08-16T13:05:16.951Z,3.03
2018-08-16T13:07:45.375Z,2.70
2018-08-16T13:10:14.300Z,2.73
2018-08-16T13:12:42.720Z,2.57
2018-08-16T13:15:11.476Z,3.10
2018-08-16T13:17:40.436Z,2.80
2018-08-16T13:20:09.560Z,3.10
2018-08-16T13:22:38.009Z,2.73
2018-08-16T13:25:06.875Z,2.30
2018-08-16T13:27:35.322Z,2.90
2018-08-16T13:30:04.393Z,2.90
2018-08-16T13:32:32.717Z,2.90
2018-08-16T13:35:01.096Z,2.77
2018-08-16T13:37:29.423Z,5.10
2018-08-16T13:39:57.792Z,3.00
2018-08-16T13:42:26.197Z,3.73
2018-08-16T13:44:54.574Z,2.80
2018-08-16T13:47:22.903Z,3.17
2018-08-16T13:49:51.373Z,3.00
2018-08-16T13:52:19.704Z,2.80
2018-08-16T13:54:48.080Z,2.80
2018-08-16T13:57:16.487Z,3.00
2018-08-16T13:59:44.857Z,2.83
2018-08-16T14:02:13.293Z,3.27
2018-08-16T14:04:41.780Z,2.67
2018-08-16T14:07:10.187Z,2.73
2018-08-16T14:09:38.586Z,3.00
2018-08-16T14:12:06.920Z,3.00
2018-08-16T14:14:35.401Z,2.63
2018-08-16T14:17:03.911Z,3.33
2018-08-16T14:19:32.364Z,2.73
2018-08-16T14:22:00.724Z,2.83
2018-08-16T14:24:29.124Z,2.90
2018-08-16T14:26:57.473Z,2.87
2018-08-16T14:29:25.812Z,2.43
2018-08-16T14:31:54.175Z,3.20
2018-08-16T14:34:22.524Z,2.43
2018-08-16T14:36:50.923Z,3.10
2018-08-16T14:39:19.363Z,2.67
2018-08-16T14:41:47.809Z,3.53
2018-08-16T14:44:16.132Z,2.90
2018-08-16T14:46:44.511Z,3.40
2018-08-16T14:49:12.844Z,3.03
2018-08-16T14:51:41.606Z,2.80
2018-08-16T14:54:10.216Z,2.50
2018-08-16T14:56:38.588Z,2.87
2018-08-16T14:59:06.921Z,3.13
2018-08-16T15:01:35.283Z,2.60
2018-08-16T15:04:03.640Z,2.93
2018-08-16T15:06:32.004Z,2.90
2018-08-16T15:09:00.343Z,2.50
2018-08-16T15:11:28.724Z,3.73
2018-08-16T15:13:57.252Z,2.60
2018-08-16T15:16:25.636Z,2.90
2018-08-16T15:18:53.984Z,2.80
2018-08-16T15:21:22.343Z,2.50
2018-08-16T15:23:50.665Z,2.80
2018-08-16T15:26:19.064Z,2.93
2018-08-16T15:28:47.387Z,2.83
2018-08-16T15:31:15.828Z,3.47
2018-08-16T15:33:44.171Z,2.80
2018-08-16T15:36:12.516Z,2.60
2018-08-16T15:38:40.844Z,3.20
2018-08-16T15:41:09.348Z,2.60
2018-08-16T15:43:38.028Z,2.57
2018-08-16T15:46:06.785Z,2.43
2018-08-16T15:48:35.116Z,2.50
2018-08-16T15:51:03.479Z,2.50
2018-08-16T15:53:31.828Z,2.80
2018-08-16T15:56:00.180Z,2.93
2018-08-16T15:58:28.516Z,2.93
2018-08-16T16:00:56.848Z,2.83
2018-08-16T16:03:25.226Z,2.60
2018-08-16T16:05:53.659Z,2.77
2018-08-16T16:08:21.942Z,2.70
2018-08-16T16:10:50.275Z,2.73
2018-08-16T16:13:18.656Z,2.73
2018-08-16T16:15:46.997Z,2.83
2018-08-16T16:18:15.364Z,3.20
2018-08-16T16:20:43.723Z,2.63
2018-08-16T16:23:12.084Z,2.90
2018-08-16T16:25:40.411Z,2.70
2018-08-16T16:28:08.798Z,2.70
2018-08-16T16:30:37.176Z,2.80
2018-08-16T16:33:05.677Z,2.57
2018-08-16T16:35:33.995Z,2.60
2018-08-16T16:38:02.388Z,2.60
2018-08-16T16:40:30.880Z,2.47
2018-08-16T16:42:59.260Z,2.30
2018-08-16T16:45:27.591Z,2.93
2018-08-16T16:47:55.960Z,2.47
2018-08-16T16:50:24.305Z,2.70
2018-08-16T16:52:52.688Z,2.40
2018-08-16T16:55:21.041Z,2.47
2018-08-16T16:57:49.416Z,3.00
2018-08-16T17:00:17.765Z,2.80
2018-08-16T17:02:46.134Z,2.80
2018-08-16T17:05:14.491Z,3.10
2018-08-16T17:07:42.859Z,2.90
2018-08-16T17:10:12.293Z,2.07
2018-08-16T17:12:41.222Z,2.90
2018-08-16T17:15:09.769Z,2.80
2018-08-16T17:17:38.590Z,2.50
2018-08-16T17:20:07.247Z,2.43
2018-08-16T17:22:35.611Z,2.77
2018-08-16T17:25:04.011Z,2.87
2018-08-16T17:27:32.376Z,2.93
2018-08-16T17:30:00.700Z,2.93
2018-08-16T17:32:29.184Z,3.20
2018-08-16T17:34:57.509Z,2.80
2018-08-16T17:37:25.903Z,2.63
2018-08-16T17:39:54.238Z,2.87
2018-08-16T17:42:22.639Z,2.70
2018-08-16T17:44:50.988Z,3.10
2018-08-16T17:47:19.360Z,2.90
2018-08-16T17:49:47.812Z,2.80
2018-08-16T17:52:16.285Z,2.60
2018-08-16T17:54:44.640Z,2.60
2018-08-16T17:57:13.020Z,3.10
2018-08-16T17:59:41.388Z,2.70
2018-08-16T18:02:09.713Z,3.20
2018-08-16T18:04:38.088Z,3.10
2018-08-16T18:07:06.427Z,3.00
2018-08-16T18:09:34.815Z,2.70
2018-08-16T18:12:03.196Z,3.30
2018-08-16T18:14:31.567Z,3.20
2018-08-16T18:16:59.937Z,3.10
2018-08-16T18:19:28.305Z,3.60
2018-08-16T18:21:56.663Z,4.50
2018-08-16T18:24:25.150Z,4.10
2018-08-16T18:26:53.405Z,4.50
2018-08-16T18:29:21.785Z,4.60
2018-08-16T18:31:50.140Z,5.80
2018-08-16T18:34:18.545Z,5.10
2018-08-16T18:36:46.888Z,4.77
2018-08-16T18:39:15.273Z,5.10
2018-08-16T18:41:43.645Z,4.50
2018-08-16T18:44:12.017Z,4.53
2018-08-16T18:46:40.373Z,4.70
2018-08-16T18:49:08.747Z,4.27
2018-08-16T18:51:37.072Z,4.20
2018-08-16T18:54:05.461Z,4.07
2018-08-16T18:56:33.815Z,4.20
2018-08-16T18:59:02.192Z,3.33
2018-08-16T19:01:30.584Z,4.60
2018-08-16T19:03:58.964Z,4.47
2018-08-16T19:06:27.394Z,4.67
2018-08-16T19:08:55.772Z,4.13
2018-08-16T19:11:24.144Z,4.13
2018-08-16T19:13:52.581Z,4.80
2018-08-16T19:16:20.948Z,4.00
2018-08-16T19:18:49.334Z,3.90
2018-08-16T19:21:17.685Z,4.10
2018-08-16T19:23:46.054Z,3.67
2018-08-16T19:26:14.392Z,3.87
2018-08-16T19:28:42.768Z,4.03
2018-08-16T19:31:11.119Z,3.70
2018-08-16T19:33:39.492Z,4.20
2018-08-16T19:36:07.888Z,4.03
2018-08-16T19:38:36.211Z,4.10
2018-08-16T19:41:06.423Z,4.57
2018-08-16T19:43:34.779Z,4.90
2018-08-16T19:46:03.178Z,4.13
2018-08-16T19:48:31.948Z,4.53
2018-08-16T19:51:00.416Z,3.77
2018-08-16T19:53:28.904Z,3.70
2018-08-16T19:55:57.347Z,3.62
2018-08-16T19:58:25.715Z,3.58
2018-08-16T20:00:54.230Z,4.35
2018-08-16T20:03:22.539Z,4.20
2018-08-16T20:05:50.921Z,4.17
2018-08-16T20:08:19.272Z,4.25
2018-08-16T20:10:47.706Z,4.35
2018-08-16T20:13:16.044Z,4.03
2018-08-16T20:15:44.430Z,3.55
2018-08-16T20:18:12.870Z,3.83
2018-08-16T20:20:41.163Z,4.17
2018-08-16T20:23:09.511Z,5.00
2018-08-16T20:25:37.891Z,4.22
2018-08-16T20:28:06.268Z,4.60
2018-08-16T20:30:34.656Z,3.80
2018-08-16T20:33:03.036Z,3.98
2018-08-16T20:35:31.601Z,3.95
2018-08-16T20:38:00.012Z,4.40
2018-08-16T20:40:28.497Z,3.80
2018-08-16T20:42:56.860Z,4.85
2018-08-16T20:45:25.241Z,5.70
2018-08-16T20:47:53.608Z,4.35
2018-08-16T20:50:22.028Z,4.47
2018-08-16T20:52:50.449Z,3.92
2018-08-16T20:55:18.857Z,4.40
2018-08-16T20:57:47.264Z,4.20
2018-08-16T21:00:15.663Z,4.65
2018-08-16T21:02:44.004Z,4.92
2018-08-16T21:05:12.375Z,4.45
2018-08-16T21:07:40.715Z,4.55
2018-08-16T21:10:10.001Z,5.00
2018-08-16T21:12:38.452Z,4.47
2018-08-16T21:15:07.334Z,4.05
2018-08-16T21:17:35.593Z,4.50
2018-08-16T21:20:04.527Z,4.83
2018-08-16T21:22:32.875Z,5.12
2018-08-16T21:25:02.275Z,5.22
2018-08-16T21:27:30.643Z,4.22
2018-08-16T21:29:58.992Z,4.92
2018-08-16T21:32:27.365Z,4.75
2018-08-16T21:34:55.705Z,4.58
2018-08-16T21:37:24.079Z,4.33
2018-08-16T21:39:52.424Z,5.17
2018-08-16T21:42:21.626Z,4.10
2018-08-16T21:44:49.960Z,4.55
2018-08-16T21:47:18.372Z,4.00
2018-08-16T21:49:46.715Z,4.83
2018-08-16T21:52:15.151Z,4.45
2018-08-16T21:54:43.449Z,4.10
2018-08-16T21:57:11.832Z,3.80
2018-08-16T21:59:40.160Z,4.30
2018-08-16T22:02:08.608Z,3.98
2018-08-16T22:04:36.976Z,4.12
2018-08-16T22:07:12.792Z,3.58
2018-08-16T22:09:41.135Z,5.00
2018-08-16T22:12:09.527Z,4.00
2018-08-16T22:14:37.860Z,4.65
2018-08-16T22:17:06.336Z,4.03
2018-08-16T22:19:34.824Z,4.58
2018-08-16T22:22:03.220Z,4.62
2018-08-16T22:24:31.567Z,4.30
2018-08-16T22:26:59.947Z,4.72
2018-08-16T22:29:28.297Z,5.10
2018-08-16T22:31:56.692Z,5.35
2018-08-16T22:34:25.028Z,4.87
2018-08-16T22:36:53.425Z,3.83
2018-08-16T22:39:21.912Z,4.45
2018-08-16T22:41:50.362Z,4.22
2018-08-16T22:44:18.856Z,4.42
2018-08-16T22:46:47.300Z,4.60
2018-08-16T22:49:15.647Z,3.87
2018-08-16T22:51:44.051Z,4.25
2018-08-16T22:54:12.360Z,4.00
2018-08-16T22:56:40.736Z,3.83
2018-08-16T22:59:09.081Z,3.92
2018-08-16T23:01:37.507Z,3.62
2018-08-16T23:04:05.935Z,4.17
2018-08-16T23:06:34.307Z,3.52
2018-08-16T23:09:02.639Z,3.85
2018-08-16T23:11:31.049Z,3.95
2018-08-16T23:13:59.416Z,3.20
2018-08-16T23:16:27.757Z,4.17
2018-08-16T23:18:56.137Z,3.83
2018-08-16T23:21:24.484Z,3.35
2018-08-16T23:23:53.367Z,3.85
2018-08-16T23:26:21.699Z,3.20
2018-08-16T23:28:50.072Z,3.77
2018-08-16T23:31:18.404Z,3.65
2018-08-16T23:33:46.801Z,3.33
2018-08-16T23:36:15.143Z,3.60
2018-08-16T23:38:43.521Z,3.72
2018-08-16T23:41:11.896Z,3.55
2018-08-16T23:43:40.270Z,3.42
2018-08-16T23:46:08.616Z,3.67
2018-08-16T23:48:37.000Z,3.47
2018-08-16T23:51:05.436Z,3.60
2018-08-16T23:53:33.911Z,3.37
2018-08-16T23:56:02.276Z,4.15
2018-08-16T23:58:30.671Z,3.50
